createdAt,value
2023-04-09T00:01:03.588Z,7.80
2023-04-09T00:05:12.052Z,8.00
2023-04-09T00:13:31.766Z,8.80
2023-04-09T00:17:44.120Z,11.60
2023-04-09T00:21:49.464Z,8.50
2023-04-09T00:25:54.721Z,7.70
2023-04-09T00:29:59.936Z,8.30
2023-04-09T00:34:05.506Z,6.70
2023-04-09T00:38:11.128Z,6.90
2023-04-09T00:42:16.648Z,6.30
2023-04-09T00:50:25.728Z,5.80
2023-04-09T00:54:30.981Z,6.20
2023-04-09T00:58:36.473Z,5.70
2023-04-09T01:06:48.878Z,5.90
2023-04-09T01:10:58.406Z,5.90
2023-04-09T01:15:06.713Z,6.70
2023-04-09T01:19:28.805Z,6.20
2023-04-09T01:23:38.466Z,5.10
2023-04-09T01:27:48.252Z,6.00
2023-04-09T01:31:54.072Z,5.60
2023-04-09T01:36:00.051Z,6.30
2023-04-09T01:40:05.978Z,6.10
2023-04-09T01:44:12.555Z,6.00
2023-04-09T01:48:17.864Z,6.70
2023-04-09T01:52:23.180Z,6.10
2023-04-09T01:56:28.392Z,5.40
2023-04-09T02:00:36.620Z,5.90
2023-04-09T02:04:42.563Z,6.10
2023-04-09T02:08:49.033Z,5.50
2023-04-09T02:12:54.502Z,5.50
2023-04-09T02:21:04.714Z,5.00
2023-04-09T02:25:10.391Z,5.10
2023-04-09T02:29:15.613Z,6.20
2023-04-09T02:33:20.805Z,5.50
2023-04-09T02:37:26.099Z,6.00
2023-04-09T02:41:31.285Z,5.50
2023-04-09T02:45:36.531Z,5.40
2023-04-09T02:49:41.847Z,5.50
2023-04-09T02:53:47.127Z,5.20
2023-04-09T02:57:52.281Z,4.90
2023-04-09T03:01:57.559Z,4.80
2023-04-09T03:06:02.826Z,4.70
2023-04-09T03:10:08.477Z,4.90
2023-04-09T03:14:13.687Z,5.50
2023-04-09T03:18:20.094Z,6.30
2023-04-09T03:22:25.437Z,5.90
2023-04-09T03:26:36.136Z,5.30
2023-04-09T03:30:41.374Z,5.30
2023-04-09T03:34:46.569Z,5.30
2023-04-09T03:38:51.945Z,5.30
2023-04-09T03:47:00.884Z,4.80
2023-04-09T03:51:06.463Z,4.90
2023-04-09T03:55:12.226Z,5.80
2023-04-09T03:59:17.514Z,5.00
2023-04-09T04:03:22.919Z,4.60
2023-04-09T04:11:32.442Z,4.80
2023-04-09T04:15:42.360Z,4.70
2023-04-09T04:19:47.547Z,4.70
2023-04-09T04:23:52.742Z,4.40
2023-04-09T04:27:58.202Z,4.70
2023-04-09T04:36:07.665Z,5.00
2023-04-09T04:40:12.999Z,4.80
2023-04-09T04:44:18.199Z,4.50
2023-04-09T04:48:23.784Z,4.40
2023-04-09T04:52:28.995Z,5.00
2023-04-09T04:56:34.285Z,4.90
2023-04-09T05:00:39.504Z,5.00
2023-04-09T05:04:44.714Z,4.60
2023-04-09T05:08:50.153Z,5.10
2023-04-09T05:12:55.500Z,5.30
2023-04-09T05:17:00.815Z,5.00
2023-04-09T05:25:10.583Z,4.90
2023-04-09T05:29:17.816Z,4.60
2023-04-09T05:33:23.054Z,4.80
2023-04-09T05:37:28.236Z,5.60
2023-04-09T05:41:33.769Z,6.00
2023-04-09T05:45:39.137Z,5.50
2023-04-09T05:49:44.460Z,5.50
2023-04-09T05:54:05.544Z,5.40
2023-04-09T06:02:27.913Z,5.30
2023-04-09T06:06:33.242Z,5.00
2023-04-09T06:10:50.132Z,5.10
2023-04-09T06:14:55.335Z,5.50
2023-04-09T06:23:11.599Z,5.70
2023-04-09T06:27:19.081Z,6.10
2023-04-09T06:31:30.805Z,5.60
2023-04-09T06:35:36.050Z,6.40
2023-04-09T06:39:47.621Z,6.00
2023-04-09T06:44:12.302Z,5.20
2023-04-09T06:48:17.613Z,6.10
2023-04-09T06:52:48.544Z,6.50
2023-04-09T06:57:03.266Z,5.80
2023-04-09T07:01:08.463Z,5.40
2023-04-09T07:05:27.622Z,6.80
2023-04-09T07:09:32.841Z,6.90
2023-04-09T07:17:59.093Z,6.60
2023-04-09T07:22:04.351Z,6.90
2023-04-09T07:26:26.466Z,6.20
2023-04-09T07:34:46.450Z,6.30
2023-04-09T07:38:51.821Z,6.20
2023-04-09T07:43:14.256Z,5.90
2023-04-09T07:47:19.668Z,6.10
2023-04-09T07:51:33.369Z,6.30
2023-04-09T07:55:42.347Z,6.30
2023-04-09T08:00:11.375Z,6.60
2023-04-09T08:13:58.124Z,5.80
2023-04-09T08:18:04.311Z,6.40
2023-04-09T08:22:09.593Z,5.90
2023-04-09T08:26:38.329Z,7.00
2023-04-09T08:35:25.516Z,6.70
2023-04-09T08:39:30.840Z,6.20
2023-04-09T08:43:56.233Z,6.20
2023-04-09T08:48:03.907Z,6.40
2023-04-09T08:52:35.848Z,6.30
2023-04-09T08:57:04.589Z,5.90
2023-04-09T09:10:40.046Z,6.30
2023-04-09T09:14:49.213Z,6.80
2023-04-09T09:18:58.345Z,6.40
2023-04-09T09:23:03.754Z,6.30
2023-04-09T09:31:58.297Z,6.50
2023-04-09T09:36:04.127Z,6.10
2023-04-09T09:40:33.267Z,6.20
2023-04-09T09:48:57.543Z,5.90
2023-04-09T09:53:06.457Z,6.30
2023-04-09T09:57:18.030Z,6.00
2023-04-09T10:01:24.310Z,6.40
2023-04-09T10:05:30.050Z,6.80
2023-04-09T10:09:47.204Z,7.20
2023-04-09T10:19:01.986Z,6.90
2023-04-09T10:23:11.010Z,7.10
2023-04-09T10:27:17.366Z,7.30
2023-04-09T10:31:24.697Z,7.70
2023-04-09T10:35:30.242Z,7.00
2023-04-09T10:39:35.529Z,6.50
2023-04-09T10:43:49.806Z,6.80
2023-04-09T10:47:55.040Z,7.20
2023-04-09T10:52:04.776Z,6.30
2023-04-09T10:56:17.943Z,6.40
2023-04-09T11:00:23.194Z,6.40
2023-04-09T11:04:47.768Z,6.60
2023-04-09T11:08:53.355Z,6.00
2023-04-09T11:13:05.944Z,6.00
2023-04-09T11:17:11.355Z,6.60
2023-04-09T11:21:20.096Z,5.80
2023-04-09T11:25:26.888Z,6.00
2023-04-09T11:29:38.130Z,6.30
2023-04-09T11:47:39.838Z,6.00
2023-04-09T11:51:45.101Z,5.10
2023-04-09T11:56:03.315Z,5.70
2023-04-09T12:00:14.401Z,5.20
2023-04-09T12:09:03.019Z,5.00
2023-04-09T12:13:09.314Z,5.20
2023-04-09T12:17:23.033Z,5.30
2023-04-09T12:26:40.478Z,4.80
2023-04-09T12:30:49.735Z,5.10
2023-04-09T12:34:54.993Z,4.60
2023-04-09T12:39:00.320Z,4.40
2023-04-09T12:43:34.734Z,5.30
2023-04-09T12:48:06.080Z,5.30
2023-04-09T12:52:11.330Z,4.00
2023-04-09T12:56:24.931Z,4.40
2023-04-09T13:04:54.702Z,4.30
2023-04-09T13:08:59.897Z,4.60
2023-04-09T13:13:21.500Z,5.00
2023-04-09T13:21:50.893Z,4.80
2023-04-09T13:25:56.138Z,4.30
2023-04-09T13:30:11.102Z,4.40
2023-04-09T13:34:16.277Z,4.30
2023-04-09T13:38:29.113Z,4.80
2023-04-09T13:42:34.358Z,4.50
2023-04-09T13:46:39.967Z,3.90
2023-04-09T13:50:58.909Z,3.80
2023-04-09T13:55:04.900Z,3.50
2023-04-09T13:59:10.096Z,3.90
2023-04-09T14:03:20.660Z,3.60
2023-04-09T14:11:43.570Z,3.80
2023-04-09T14:16:00.340Z,3.60
2023-04-09T14:20:21.265Z,3.40
2023-04-09T14:24:26.472Z,3.40
2023-04-09T14:32:44.961Z,3.50
2023-04-09T14:41:11.149Z,3.40
2023-04-09T14:49:34.322Z,3.10
2023-04-09T14:53:39.717Z,3.00
2023-04-09T15:02:02.076Z,3.50
2023-04-09T15:06:07.530Z,4.10
2023-04-09T15:10:38.595Z,3.50
2023-04-09T15:14:55.206Z,3.60
2023-04-09T15:23:25.305Z,3.40
2023-04-09T15:27:30.509Z,3.40
2023-04-09T15:32:01.304Z,3.40
2023-04-09T15:36:21.264Z,3.50
2023-04-09T15:44:45.029Z,3.20
2023-04-09T15:48:50.548Z,3.70
2023-04-09T15:57:58.712Z,3.50
2023-04-09T16:02:04.642Z,3.20
2023-04-09T16:06:13.210Z,2.90
2023-04-09T16:14:58.345Z,3.50
2023-04-09T16:19:03.661Z,3.00
2023-04-09T16:23:09.025Z,3.10
2023-04-09T16:27:14.584Z,3.00
2023-04-09T16:31:19.872Z,2.80
2023-04-09T16:35:25.384Z,2.60
2023-04-09T16:39:44.044Z,2.50
2023-04-09T16:43:51.198Z,2.90
2023-04-09T16:47:56.436Z,3.10
2023-04-09T17:01:17.948Z,3.30
2023-04-09T17:05:23.218Z,3.40
2023-04-09T17:09:29.805Z,3.40
2023-04-09T17:13:36.250Z,3.60
2023-04-09T17:17:41.579Z,3.50
2023-04-09T17:21:46.884Z,4.40
2023-04-09T17:25:52.289Z,3.50
2023-04-09T17:29:57.633Z,4.60
2023-04-09T17:34:03.733Z,3.90
2023-04-09T17:38:08.993Z,4.00
2023-04-09T17:42:14.340Z,4.00
2023-04-09T17:46:19.672Z,3.70
2023-04-09T17:50:24.987Z,3.70
2023-04-09T17:54:34.930Z,3.40
2023-04-09T17:58:40.322Z,3.60
2023-04-09T18:02:46.169Z,3.30
2023-04-09T18:06:51.759Z,3.90
2023-04-09T18:11:11.544Z,3.10
2023-04-09T18:15:18.791Z,3.60
2023-04-09T18:19:24.036Z,3.90
2023-04-09T18:23:29.241Z,4.40
2023-04-09T18:27:34.511Z,4.40
2023-04-09T18:31:39.735Z,5.00
2023-04-09T18:35:45.403Z,5.00
2023-04-09T18:39:50.965Z,4.30
2023-04-09T18:43:56.500Z,5.30
2023-04-09T18:48:01.764Z,4.10
2023-04-09T18:52:07.864Z,3.80
2023-04-09T18:56:13.050Z,3.60
2023-04-09T19:00:18.325Z,3.00
2023-04-09T19:04:23.730Z,2.80
2023-04-09T19:08:32.394Z,3.00
2023-04-09T19:12:38.366Z,3.80
2023-04-09T19:16:44.331Z,3.60
2023-04-09T19:20:49.592Z,3.80
2023-04-09T19:24:54.785Z,4.70
2023-04-09T19:29:00.113Z,4.50
2023-04-09T19:33:05.776Z,4.20
2023-04-09T19:37:11.806Z,3.60
2023-04-09T19:41:17.004Z,3.50
2023-04-09T19:49:25.858Z,5.00
2023-04-09T19:53:31.054Z,4.20
2023-04-09T19:57:36.466Z,4.30
2023-04-09T20:01:41.784Z,3.50
2023-04-09T20:05:47.179Z,4.40
2023-04-09T20:09:52.382Z,5.20
2023-04-09T20:18:02.513Z,4.10
2023-04-09T20:26:13.393Z,4.90
2023-04-09T20:30:18.818Z,5.10
2023-04-09T20:34:26.966Z,4.50
2023-04-09T20:38:32.693Z,5.80
2023-04-09T20:42:39.834Z,5.00
2023-04-09T20:46:45.068Z,5.00
2023-04-09T20:54:53.899Z,4.20
2023-04-09T20:58:59.611Z,4.70
2023-04-09T21:03:05.112Z,4.90
2023-04-09T21:07:10.502Z,4.50
2023-04-09T21:15:19.342Z,3.60
2023-04-09T21:19:24.634Z,4.50
2023-04-09T21:23:29.842Z,4.20
2023-04-09T21:27:34.992Z,4.40
2023-04-09T21:31:40.160Z,9.40
2023-04-09T21:35:45.477Z,7.20
2023-04-09T21:43:54.490Z,6.50
2023-04-09T21:48:00.068Z,10.30
2023-04-09T21:52:06.612Z,8.80
2023-04-09T21:56:12.098Z,6.40
2023-04-09T22:00:17.752Z,7.20
2023-04-09T22:04:23.038Z,6.60
2023-04-09T22:08:28.322Z,5.00
2023-04-09T22:12:33.673Z,5.70
2023-04-09T22:16:38.966Z,6.60
2023-04-09T22:20:44.168Z,6.20
2023-04-09T22:24:49.426Z,6.20
2023-04-09T22:28:54.825Z,6.10
2023-04-09T22:33:00.224Z,5.80
2023-04-09T22:37:05.801Z,5.30
2023-04-09T22:41:11.021Z,5.80
2023-04-09T22:45:16.365Z,5.40
2023-04-09T22:49:22.808Z,5.60
2023-04-09T22:53:28.039Z,5.20
2023-04-09T22:57:33.267Z,4.90
2023-04-09T23:01:38.626Z,4.60
2023-04-09T23:05:44.249Z,5.30
2023-04-09T23:13:53.024Z,5.90
2023-04-09T23:17:58.269Z,5.70
2023-04-09T23:22:03.481Z,5.90
2023-04-09T23:26:09.062Z,6.30
2023-04-09T23:34:21.971Z,11.30
2023-04-09T23:38:27.235Z,7.20
2023-04-09T23:42:33.979Z,6.90
2023-04-09T23:46:39.249Z,5.40
2023-04-09T23:50:44.507Z,5.70
2023-04-09T23:54:51.388Z,5.50
2023-04-09T23:58:56.870Z,6.30
